createdAt,value
2023-05-17T00:01:42.054Z,8.40
2023-05-17T00:04:11.034Z,8.30
2023-05-17T00:06:37.833Z,8.50
2023-05-17T00:09:04.628Z,8.30
2023-05-17T00:11:31.627Z,8.30
2023-05-17T00:16:27.907Z,8.30
2023-05-17T00:18:57.198Z,8.00
2023-05-17T00:21:26.523Z,7.90
2023-05-17T00:23:56.054Z,7.90
2023-05-17T00:26:22.874Z,7.90
2023-05-17T00:28:49.619Z,7.90
2023-05-17T00:31:16.380Z,7.80
2023-05-17T00:33:46.495Z,7.90
2023-05-17T00:36:13.324Z,7.80
2023-05-17T00:38:40.009Z,7.90
2023-05-17T00:41:06.749Z,7.90
2023-05-17T00:46:00.704Z,8.00
2023-05-17T00:48:29.148Z,7.90
2023-05-17T00:50:56.610Z,7.80
2023-05-17T00:53:26.447Z,7.80
2023-05-17T00:55:55.428Z,7.80
2023-05-17T01:00:51.015Z,7.70
2023-05-17T01:03:22.632Z,7.70
2023-05-17T01:05:51.065Z,7.70
2023-05-17T01:08:20.420Z,7.60
2023-05-17T01:10:53.476Z,7.80
2023-05-17T01:13:38.579Z,7.80
2023-05-17T01:16:17.771Z,7.60
2023-05-17T01:18:57.875Z,7.60
2023-05-17T01:21:49.056Z,7.60
2023-05-17T01:24:24.668Z,7.60
2023-05-17T01:26:57.019Z,7.60
2023-05-17T01:29:32.263Z,7.60
2023-05-17T01:32:02.337Z,7.60
2023-05-17T01:34:29.855Z,7.50
2023-05-17T01:36:58.069Z,7.50
2023-05-17T01:39:24.937Z,7.50
2023-05-17T01:42:05.337Z,7.40
2023-05-17T01:44:37.197Z,7.80
2023-05-17T01:47:16.330Z,7.40
2023-05-17T01:49:50.560Z,7.30
2023-05-17T01:52:29.540Z,7.30
2023-05-17T01:55:10.625Z,7.30
2023-05-17T01:57:42.999Z,7.30
2023-05-17T02:00:14.304Z,7.30
2023-05-17T02:05:08.598Z,7.30
2023-05-17T02:07:35.787Z,7.30
2023-05-17T02:10:02.855Z,7.20
2023-05-17T02:12:29.613Z,7.30
2023-05-17T02:14:56.322Z,7.20
2023-05-17T02:17:23.106Z,7.30
2023-05-17T02:19:49.992Z,7.30
2023-05-17T02:22:18.850Z,7.10
2023-05-17T02:24:46.681Z,7.10
2023-05-17T02:27:13.771Z,7.00
2023-05-17T02:29:43.067Z,7.00
2023-05-17T02:32:14.462Z,7.00
2023-05-17T02:34:41.208Z,7.10
2023-05-17T02:37:07.926Z,7.00
2023-05-17T02:39:37.213Z,7.00
2023-05-17T02:42:04.129Z,7.10
2023-05-17T02:44:35.711Z,7.00
2023-05-17T02:47:02.697Z,7.00
2023-05-17T02:49:31.789Z,7.10
2023-05-17T02:51:58.482Z,7.00
2023-05-17T02:54:27.505Z,6.90
2023-05-17T02:56:56.467Z,6.90
2023-05-17T02:59:25.368Z,6.80
2023-05-17T03:01:54.563Z,6.90
2023-05-17T03:04:23.834Z,6.90
2023-05-17T03:06:55.751Z,6.70
2023-05-17T03:09:24.627Z,6.70
2023-05-17T03:11:51.414Z,6.80
2023-05-17T03:14:18.117Z,6.80
2023-05-17T03:19:12.129Z,6.80
2023-05-17T03:21:39.000Z,6.80
2023-05-17T03:24:06.127Z,6.80
2023-05-17T03:26:33.500Z,6.80
2023-05-17T03:29:02.568Z,6.80
2023-05-17T03:31:29.621Z,6.70
2023-05-17T03:33:58.808Z,6.80
2023-05-17T03:36:25.863Z,6.80
2023-05-17T03:38:55.053Z,7.20
2023-05-17T03:41:24.031Z,6.80
2023-05-17T03:43:50.945Z,6.70
2023-05-17T03:46:20.150Z,6.80
2023-05-17T03:51:16.301Z,6.70
2023-05-17T03:53:43.689Z,6.70
2023-05-17T03:56:12.896Z,6.60
2023-05-17T03:58:39.690Z,6.60
2023-05-17T04:03:33.784Z,6.60
2023-05-17T04:06:08.001Z,6.70
2023-05-17T04:08:37.367Z,6.70
2023-05-17T04:11:14.028Z,6.70
2023-05-17T04:13:41.326Z,6.80
2023-05-17T04:16:09.199Z,6.80
2023-05-17T04:18:39.893Z,6.80
2023-05-17T04:21:06.982Z,6.80
2023-05-17T04:23:34.761Z,6.80
2023-05-17T04:26:01.570Z,6.70
2023-05-17T04:28:28.367Z,6.80
2023-05-17T04:30:56.197Z,6.80
2023-05-17T04:33:25.911Z,6.80
2023-05-17T04:35:57.619Z,6.70
2023-05-17T04:38:24.335Z,6.60
2023-05-17T04:40:53.432Z,6.70
2023-05-17T04:43:20.141Z,6.80
2023-05-17T04:45:46.947Z,6.90
2023-05-17T04:48:16.767Z,6.90
2023-05-17T04:50:47.122Z,7.00
2023-05-17T04:53:18.651Z,7.00
2023-05-17T04:55:45.997Z,7.10
2023-05-17T04:58:13.090Z,7.10
2023-05-17T05:00:41.979Z,7.20
2023-05-17T05:03:08.828Z,7.30
2023-05-17T05:05:38.082Z,7.30
2023-05-17T05:08:04.934Z,7.30
2023-05-17T05:10:34.059Z,7.30
2023-05-17T05:13:03.450Z,7.30
2023-05-17T05:15:30.489Z,7.30
2023-05-17T05:17:57.447Z,7.40
2023-05-17T05:20:25.874Z,7.50
2023-05-17T05:22:54.519Z,7.50
2023-05-17T05:25:21.242Z,7.60
2023-05-17T05:27:50.485Z,7.60
2023-05-17T05:30:22.529Z,7.70
2023-05-17T05:32:52.413Z,7.70
2023-05-17T05:35:26.405Z,7.80
2023-05-17T05:37:55.844Z,7.80
2023-05-17T05:40:24.856Z,8.10
2023-05-17T05:42:52.383Z,8.20
2023-05-17T05:45:21.648Z,8.30
2023-05-17T05:47:48.576Z,8.30
2023-05-17T05:50:17.782Z,9.60
2023-05-17T05:52:44.541Z,9.40
2023-05-17T05:55:11.422Z,9.30
2023-05-17T05:57:40.256Z,9.30
2023-05-17T06:00:07.721Z,9.20
2023-05-17T06:02:34.952Z,9.20
2023-05-17T06:05:08.152Z,9.30
2023-05-17T06:07:34.901Z,9.30
2023-05-17T06:10:06.337Z,9.30
2023-05-17T06:12:35.294Z,9.40
2023-05-17T06:15:03.007Z,9.40
2023-05-17T06:17:29.846Z,9.60
2023-05-17T06:19:56.610Z,10.00
2023-05-17T06:24:50.766Z,9.80
2023-05-17T06:27:19.880Z,10.50
2023-05-17T06:29:46.642Z,10.60
2023-05-17T06:37:07.708Z,10.70
2023-05-17T06:39:34.514Z,11.00
2023-05-17T06:44:28.488Z,10.80
2023-05-17T06:46:57.446Z,10.80
2023-05-17T06:51:51.349Z,10.90
2023-05-17T06:54:19.620Z,11.70
2023-05-17T06:56:46.500Z,11.90
2023-05-17T06:59:13.220Z,12.20
2023-05-17T07:01:40.068Z,12.50
2023-05-17T07:04:09.197Z,12.80
2023-05-17T07:06:36.042Z,12.10
2023-05-17T07:09:02.779Z,12.10
2023-05-17T07:11:33.951Z,12.40
2023-05-17T07:14:00.659Z,12.40
2023-05-17T07:16:29.861Z,12.60
2023-05-17T07:18:56.842Z,13.00
2023-05-17T07:21:24.029Z,13.20
2023-05-17T07:23:51.323Z,13.40
2023-05-17T07:26:21.230Z,13.40
2023-05-17T07:28:50.933Z,13.40
2023-05-17T07:31:19.950Z,13.50
2023-05-17T07:33:46.692Z,13.50
2023-05-17T07:36:15.639Z,13.60
2023-05-17T07:38:42.407Z,13.50
2023-05-17T07:41:09.837Z,14.00
2023-05-17T07:43:37.808Z,14.30
2023-05-17T07:46:05.148Z,13.90
2023-05-17T07:48:32.342Z,13.90
2023-05-17T07:50:59.332Z,14.00
2023-05-17T07:53:26.104Z,14.00
2023-05-17T07:55:55.237Z,13.90
2023-05-17T07:58:24.052Z,13.80
2023-05-17T08:00:52.908Z,13.80
2023-05-17T08:05:46.813Z,13.40
2023-05-17T08:08:16.115Z,13.40
2023-05-17T08:10:45.226Z,13.30
2023-05-17T08:13:12.013Z,13.30
2023-05-17T08:15:38.738Z,13.10
2023-05-17T08:18:06.073Z,12.80
2023-05-17T08:20:32.876Z,12.40
2023-05-17T08:23:02.420Z,12.10
2023-05-17T08:25:29.395Z,12.50
2023-05-17T08:27:58.647Z,12.50
2023-05-17T08:32:59.034Z,12.20
2023-05-17T08:37:55.875Z,13.00
2023-05-17T08:42:52.287Z,13.20
2023-05-17T08:45:19.103Z,12.90
2023-05-17T08:50:17.442Z,12.90
2023-05-17T08:52:48.739Z,13.00
2023-05-17T08:55:16.451Z,12.80
2023-05-17T08:57:47.142Z,12.80
2023-05-17T09:00:19.503Z,12.90
2023-05-17T09:02:48.846Z,13.30
2023-05-17T09:05:16.547Z,13.60
2023-05-17T09:07:47.669Z,13.60
2023-05-17T09:12:44.741Z,13.40
2023-05-17T09:15:15.040Z,13.50
2023-05-17T09:17:50.679Z,14.00
2023-05-17T09:20:34.191Z,14.60
2023-05-17T09:25:32.324Z,14.70
2023-05-17T09:28:07.664Z,14.40
2023-05-17T09:30:38.168Z,14.30
2023-05-17T09:38:16.087Z,13.60
2023-05-17T09:40:44.721Z,13.80
2023-05-17T09:43:12.630Z,14.00
2023-05-17T09:45:39.662Z,14.10
2023-05-17T09:48:14.442Z,14.10
2023-05-17T09:50:51.712Z,14.00
2023-05-17T09:53:31.639Z,13.70
2023-05-17T09:56:05.483Z,13.80
2023-05-17T09:58:37.003Z,13.60
2023-05-17T10:01:08.579Z,13.40
2023-05-17T10:03:40.591Z,13.50
2023-05-17T10:06:27.718Z,13.60
2023-05-17T10:09:02.318Z,14.00
2023-05-17T10:11:34.287Z,13.90
2023-05-17T10:14:18.461Z,14.00
2023-05-17T10:16:48.470Z,14.30
2023-05-17T10:19:20.202Z,14.50
2023-05-17T10:22:07.831Z,14.40
2023-05-17T10:24:38.556Z,14.40
2023-05-17T10:27:09.473Z,14.60
2023-05-17T10:29:39.111Z,14.70
2023-05-17T10:32:09.334Z,14.70
2023-05-17T10:34:41.431Z,14.70
2023-05-17T10:37:08.208Z,14.40
2023-05-17T10:39:38.443Z,14.30
2023-05-17T10:42:14.664Z,14.30
2023-05-17T10:47:17.284Z,14.50
2023-05-17T10:49:47.988Z,14.60
2023-05-17T10:52:21.137Z,14.70
2023-05-17T10:54:53.511Z,14.70
2023-05-17T11:00:20.275Z,14.40
2023-05-17T11:02:48.952Z,14.40
2023-05-17T11:05:27.152Z,14.80
2023-05-17T11:08:19.238Z,15.00
2023-05-17T11:11:10.843Z,15.10
2023-05-17T11:13:52.237Z,15.10
2023-05-17T11:16:25.530Z,15.20
2023-05-17T11:18:57.500Z,15.40
2023-05-17T11:21:31.848Z,15.20
2023-05-17T11:24:05.167Z,15.60
2023-05-17T11:26:37.879Z,16.00
2023-05-17T11:29:12.310Z,16.10
2023-05-17T11:31:44.461Z,15.90
2023-05-17T11:34:13.811Z,15.90
2023-05-17T11:36:52.260Z,15.90
2023-05-17T11:39:24.457Z,15.90
2023-05-17T11:41:56.018Z,15.90
2023-05-17T11:47:10.319Z,15.00
2023-05-17T11:49:40.901Z,15.10
2023-05-17T11:52:08.520Z,15.10
2023-05-17T11:54:37.919Z,15.30
2023-05-17T11:57:08.481Z,15.70
2023-05-17T11:59:48.247Z,15.80
2023-05-17T12:02:31.928Z,16.50
2023-05-17T12:05:01.400Z,16.30
2023-05-17T12:07:30.485Z,16.30
2023-05-17T12:09:57.295Z,16.30
2023-05-17T12:12:24.077Z,16.60
2023-05-17T12:14:53.000Z,16.80
2023-05-17T12:17:29.019Z,16.20
2023-05-17T12:22:23.292Z,16.70
2023-05-17T12:29:54.042Z,16.90
2023-05-17T12:32:21.325Z,16.60
2023-05-17T12:34:49.341Z,16.60
2023-05-17T12:37:18.656Z,16.40
2023-05-17T12:39:45.563Z,16.60
2023-05-17T12:42:12.682Z,16.70
2023-05-17T12:44:39.506Z,16.80
2023-05-17T12:47:06.520Z,17.00
2023-05-17T12:49:38.575Z,16.70
2023-05-17T12:52:08.134Z,16.20
2023-05-17T12:57:14.056Z,16.10
2023-05-17T12:59:49.117Z,16.20
2023-05-17T13:02:18.738Z,16.30
2023-05-17T13:04:48.222Z,16.30
2023-05-17T13:07:24.500Z,16.80
2023-05-17T13:12:23.641Z,16.20
2023-05-17T13:14:53.027Z,16.70
2023-05-17T13:17:27.829Z,16.80
2023-05-17T13:19:58.359Z,17.40
2023-05-17T13:22:25.577Z,17.80
2023-05-17T13:24:55.116Z,17.70
2023-05-17T13:27:21.895Z,16.80
2023-05-17T13:29:50.988Z,16.80
2023-05-17T13:32:17.701Z,16.80
2023-05-17T13:34:44.465Z,16.60
2023-05-17T13:37:12.689Z,16.50
2023-05-17T13:39:41.238Z,16.40
2023-05-17T13:42:12.144Z,16.40
2023-05-17T13:47:07.017Z,16.50
2023-05-17T13:49:33.832Z,16.50
2023-05-17T13:52:03.734Z,16.60
2023-05-17T13:54:30.601Z,16.80
2023-05-17T13:56:59.534Z,17.10
2023-05-17T13:59:26.669Z,17.00
2023-05-17T14:01:53.811Z,17.00
2023-05-17T14:04:23.039Z,16.80
2023-05-17T14:09:21.887Z,16.70
2023-05-17T14:14:16.008Z,16.70
2023-05-17T14:16:45.216Z,16.80
2023-05-17T14:19:12.394Z,16.70
2023-05-17T14:21:39.155Z,17.00
2023-05-17T14:24:06.577Z,17.00
2023-05-17T14:26:33.404Z,16.50
2023-05-17T14:31:29.860Z,17.20
2023-05-17T14:33:56.627Z,17.40
2023-05-17T14:38:50.550Z,18.20
2023-05-17T14:41:18.579Z,18.50
2023-05-17T14:43:50.069Z,18.00
2023-05-17T14:48:44.230Z,17.10
2023-05-17T14:51:11.415Z,17.00
2023-05-17T14:56:05.626Z,17.10
2023-05-17T14:58:34.622Z,17.10
2023-05-17T15:03:34.470Z,17.50
2023-05-17T15:06:07.522Z,17.50
2023-05-17T15:11:04.174Z,16.90
2023-05-17T15:13:33.349Z,17.20
2023-05-17T15:18:29.839Z,16.70
2023-05-17T15:20:56.640Z,16.70
2023-05-17T15:23:23.386Z,16.80
2023-05-17T15:25:50.198Z,16.70
2023-05-17T15:28:20.899Z,16.70
2023-05-17T15:30:58.764Z,16.60
2023-05-17T15:33:25.758Z,16.60
2023-05-17T15:38:20.751Z,16.30
2023-05-17T15:43:16.797Z,16.10
2023-05-17T15:45:43.826Z,16.00
2023-05-17T15:48:12.875Z,16.10
2023-05-17T15:50:39.691Z,16.30
2023-05-17T15:55:36.087Z,16.60
2023-05-17T15:58:02.896Z,16.70
2023-05-17T16:02:57.287Z,16.90
2023-05-17T16:05:24.015Z,16.90
2023-05-17T16:07:50.723Z,17.00
2023-05-17T16:10:20.041Z,17.30
2023-05-17T16:12:47.651Z,17.50
2023-05-17T16:15:14.341Z,18.00
2023-05-17T16:20:11.482Z,18.40
2023-05-17T16:22:43.242Z,18.80
2023-05-17T16:25:09.939Z,18.70
2023-05-17T16:27:38.893Z,18.70
2023-05-17T16:30:06.291Z,18.60
2023-05-17T16:32:33.046Z,18.70
2023-05-17T16:35:01.180Z,18.90
2023-05-17T16:37:27.939Z,19.20
2023-05-17T16:42:23.982Z,19.40
2023-05-17T16:44:50.838Z,19.60
2023-05-17T16:47:17.614Z,19.90
2023-05-17T16:49:44.527Z,19.90
2023-05-17T16:52:13.451Z,20.20
2023-05-17T16:54:41.205Z,20.40
2023-05-17T16:59:35.501Z,20.50
2023-05-17T17:02:02.721Z,20.60
2023-05-17T17:04:32.057Z,20.30
2023-05-17T17:06:59.174Z,20.30
2023-05-17T17:09:25.967Z,20.10
2023-05-17T17:11:52.788Z,20.00
2023-05-17T17:14:20.079Z,19.90
2023-05-17T17:16:47.044Z,19.80
2023-05-17T17:19:16.643Z,19.80
2023-05-17T17:21:43.681Z,19.70
2023-05-17T17:24:10.443Z,19.40
2023-05-17T17:26:37.250Z,19.40
2023-05-17T17:29:08.234Z,19.40
2023-05-17T17:31:37.528Z,19.50
2023-05-17T17:34:05.184Z,19.50
2023-05-17T17:36:34.285Z,19.60
2023-05-17T17:41:28.140Z,19.60
2023-05-17T17:43:56.987Z,19.50
2023-05-17T17:46:26.883Z,19.40
2023-05-17T17:48:55.100Z,19.20
2023-05-17T17:51:23.511Z,19.00
2023-05-17T17:53:52.090Z,18.80
2023-05-17T17:56:19.064Z,18.60
2023-05-17T17:58:46.458Z,18.40
2023-05-17T18:01:13.276Z,18.20
2023-05-17T18:03:40.067Z,18.10
2023-05-17T18:06:09.041Z,18.00
2023-05-17T18:08:35.780Z,17.80
2023-05-17T18:15:57.420Z,17.40
2023-05-17T18:20:51.503Z,17.20
2023-05-17T18:28:21.667Z,16.90
2023-05-17T18:30:58.101Z,16.60
2023-05-17T18:33:27.841Z,16.60
2023-05-17T18:35:54.545Z,16.40
2023-05-17T18:38:23.896Z,16.30
2023-05-17T18:40:50.765Z,16.30
2023-05-17T18:45:49.554Z,16.10
2023-05-17T18:48:16.359Z,16.00
2023-05-17T18:50:43.276Z,15.80
2023-05-17T18:53:10.132Z,15.80
2023-05-17T18:55:36.913Z,15.70
2023-05-17T18:58:03.989Z,15.70
2023-05-17T19:00:31.037Z,15.50
2023-05-17T19:03:00.211Z,15.50
2023-05-17T19:07:56.358Z,15.30
2023-05-17T19:10:23.125Z,15.10
2023-05-17T19:15:19.535Z,14.90
2023-05-17T19:17:51.401Z,14.80
2023-05-17T19:20:20.868Z,14.70
2023-05-17T19:22:47.764Z,14.60
2023-05-17T19:25:16.121Z,14.60
2023-05-17T19:27:45.981Z,14.60
2023-05-17T19:30:12.792Z,14.60
2023-05-17T19:32:42.034Z,14.50
2023-05-17T19:35:11.657Z,14.50
2023-05-17T19:40:06.216Z,14.20
2023-05-17T19:45:05.208Z,14.10
2023-05-17T19:50:01.764Z,13.90
2023-05-17T19:52:31.050Z,13.90
2023-05-17T19:54:57.868Z,13.80
2023-05-17T19:57:27.415Z,13.70
2023-05-17T19:59:54.176Z,13.70
2023-05-17T20:02:23.286Z,13.70
2023-05-17T20:04:53.093Z,13.60
2023-05-17T20:07:25.845Z,13.50
2023-05-17T20:09:53.453Z,13.50
2023-05-17T20:12:21.031Z,13.30
2023-05-17T20:14:47.909Z,13.20
2023-05-17T20:17:17.183Z,13.00
2023-05-17T20:19:43.936Z,13.00
2023-05-17T20:22:11.102Z,13.00
2023-05-17T20:24:38.371Z,13.00
2023-05-17T20:27:05.296Z,12.90
2023-05-17T20:29:34.752Z,12.80
2023-05-17T20:32:04.037Z,12.80
2023-05-17T20:34:30.972Z,12.70
2023-05-17T20:37:01.086Z,12.70
2023-05-17T20:39:28.193Z,12.60
2023-05-17T20:41:55.470Z,12.60
2023-05-17T20:44:25.862Z,12.50
2023-05-17T20:49:21.063Z,12.40
2023-05-17T20:51:47.836Z,12.30
2023-05-17T20:56:42.064Z,12.10
2023-05-17T20:59:08.885Z,12.10
2023-05-17T21:04:06.542Z,12.00
2023-05-17T21:06:34.339Z,12.00
2023-05-17T21:09:02.401Z,12.00
2023-05-17T21:13:59.962Z,11.90
2023-05-17T21:16:29.484Z,11.90
2023-05-17T21:18:57.577Z,11.80
2023-05-17T21:21:24.473Z,11.80
2023-05-17T21:23:51.519Z,11.60
2023-05-17T21:26:21.550Z,11.60
2023-05-17T21:28:50.403Z,11.40
2023-05-17T21:31:17.204Z,11.40
2023-05-17T21:33:43.983Z,11.40
2023-05-17T21:36:12.994Z,11.40
2023-05-17T21:38:42.171Z,11.40
2023-05-17T21:43:36.596Z,11.40
2023-05-17T21:53:27.205Z,11.20
2023-05-17T21:58:30.774Z,11.00
2023-05-17T22:00:58.025Z,10.90
2023-05-17T22:05:54.422Z,10.90
2023-05-17T22:08:23.529Z,10.90
2023-05-17T22:13:25.618Z,10.80
2023-05-17T22:15:57.194Z,10.80
2023-05-17T22:18:27.184Z,10.90
2023-05-17T22:23:21.992Z,10.80
2023-05-17T22:25:48.803Z,10.80
2023-05-17T22:28:17.855Z,10.70
2023-05-17T22:30:46.880Z,10.60
2023-05-17T22:33:13.596Z,10.60
2023-05-17T22:35:41.197Z,10.50
2023-05-17T22:38:10.295Z,10.50
2023-05-17T22:40:37.086Z,10.50
2023-05-17T22:43:08.524Z,10.50
2023-05-17T22:45:38.129Z,10.30
2023-05-17T22:50:36.161Z,10.40
2023-05-17T22:53:06.020Z,10.50
2023-05-17T22:55:32.940Z,10.50
2023-05-17T22:58:02.362Z,10.50
2023-05-17T23:00:29.541Z,10.40
2023-05-17T23:05:28.440Z,10.20
2023-05-17T23:07:57.824Z,10.10
2023-05-17T23:10:25.333Z,10.10
2023-05-17T23:12:52.728Z,10.10
2023-05-17T23:15:21.891Z,9.90
2023-05-17T23:17:51.630Z,9.90
2023-05-17T23:20:20.093Z,10.00
2023-05-17T23:22:49.741Z,10.00
2023-05-17T23:25:20.669Z,10.00
2023-05-17T23:27:50.561Z,10.10
2023-05-17T23:30:19.654Z,10.00
2023-05-17T23:32:50.554Z,10.00
2023-05-17T23:35:19.612Z,9.90
2023-05-17T23:37:46.428Z,9.80
2023-05-17T23:40:14.656Z,9.70
2023-05-17T23:42:46.563Z,9.60
2023-05-17T23:45:13.324Z,9.50
2023-05-17T23:47:41.136Z,9.50
2023-05-17T23:50:11.901Z,9.50
2023-05-17T23:52:41.170Z,9.60
2023-05-17T23:55:08.278Z,9.60
2023-05-17T23:57:35.553Z,9.60
